Aviation Digital Data Service (ADDS)

Output produced by METARs form (0009 UTC 24 May 2022)
found at http://aviationweather.gov/metar/data/
 
METAR text: KLOT 232355Z AUTO 04008KT 10SM CLR 13/02 A3027 RMK AO2 T01330018 10166 20133
Conditions at: KLOT (ROMEOVILLE/CHI , IL, US) observed 2355 UTC 23 May 2022
Temperature: 13.3°C (56°F)
Dewpoint: 1.8°C (35°F) [RH = 46%]
Pressure (altimeter): 30.27 inches Hg (1025.1 mb)
Winds: from the NE (40 degrees) at 9 MPH (8 knots; 4.1 m/s)
Visibility: 10 or more miles (16+ km)
Ceiling: at least 12,000 feet AGL
Clouds: sky clear below 12,000 feet AGL
Weather: automated observation with no human augmentation;
there may or may not be significant weather present at this time

METAR text: KLOT 232335Z AUTO 04009KT 10SM CLR 14/02 A3026 RMK AO2 T01370019
Conditions at: KLOT (ROMEOVILLE/CHI , IL, US) observed 2335 UTC 23 May 2022
Temperature: 13.7°C (57°F)
Dewpoint: 1.9°C (35°F) [RH = 45%]
Pressure (altimeter): 30.26 inches Hg (1024.8 mb)
Winds: from the NE (40 degrees) at 10 MPH (9 knots; 4.6 m/s)
Visibility: 10 or more miles (16+ km)
Ceiling: at least 12,000 feet AGL
Clouds: sky clear below 12,000 feet AGL
Weather: automated observation with no human augmentation;
there may or may not be significant weather present at this time

METAR text: KLOT 232315Z AUTO 02008KT 10SM CLR 14/02 A3027 RMK AO2 T01370018
Conditions at: KLOT (ROMEOVILLE/CHI , IL, US) observed 2315 UTC 23 May 2022
Temperature: 13.7°C (57°F)
Dewpoint: 1.8°C (35°F) [RH = 44%]
Pressure (altimeter): 30.27 inches Hg (1025.1 mb)
Winds: from the NNE (20 degrees) at 9 MPH (8 knots; 4.1 m/s)
Visibility: 10 or more miles (16+ km)
Ceiling: at least 12,000 feet AGL
Clouds: sky clear below 12,000 feet AGL
Weather: automated observation with no human augmentation;
there may or may not be significant weather present at this time

METAR text: KLOT 232255Z AUTO 03010KT 10SM CLR 14/03 A3028 RMK AO2 T01420026
Conditions at: KLOT (ROMEOVILLE/CHI , IL, US) observed 2255 UTC 23 May 2022
Temperature: 14.2°C (58°F)
Dewpoint: 2.6°C (37°F) [RH = 45%]
Pressure (altimeter): 30.28 inches Hg (1025.5 mb)
Winds: from the NNE (30 degrees) at 12 MPH (10 knots; 5.1 m/s)
Visibility: 10 or more miles (16+ km)
Ceiling: at least 12,000 feet AGL
Clouds: sky clear below 12,000 feet AGL
Weather: automated observation with no human augmentation;
there may or may not be significant weather present at this time

METAR text: KLOT 232235Z AUTO 03009KT 10SM CLR 15/02 A3028 RMK AO2 T01450020
Conditions at: KLOT (ROMEOVILLE/CHI , IL, US) observed 2235 UTC 23 May 2022
Temperature: 14.5°C (58°F)
Dewpoint: 2.0°C (36°F) [RH = 43%]
Pressure (altimeter): 30.28 inches Hg (1025.5 mb)
Winds: from the NNE (30 degrees) at 10 MPH (9 knots; 4.6 m/s)
Visibility: 10 or more miles (16+ km)
Ceiling: at least 12,000 feet AGL
Clouds: sky clear below 12,000 feet AGL
Weather: automated observation with no human augmentation;
there may or may not be significant weather present at this time

METAR text: KLOT 232215Z AUTO 06009KT 10SM CLR 15/02 A3027 RMK AO2 T01450019
Conditions at: KLOT (ROMEOVILLE/CHI , IL, US) observed 2215 UTC 23 May 2022
Temperature: 14.5°C (58°F)
Dewpoint: 1.9°C (35°F) [RH = 42%]
Pressure (altimeter): 30.27 inches Hg (1025.1 mb)
Winds: from the ENE (60 degrees) at 10 MPH (9 knots; 4.6 m/s)
Visibility: 10 or more miles (16+ km)
Ceiling: at least 12,000 feet AGL
Clouds: sky clear below 12,000 feet AGL
Weather: automated observation with no human augmentation;
there may or may not be significant weather present at this time